Time;durP1;ratioP1;P1;durP2;ratioP2;P2;SDS_P1;SDS_P2;PMS_P1;PMS_P2;Temp;Humidity;BMP_temperature;BMP_pressure;BME280_temperature;BME280_humidity;BME280_pressure;Samples;Min_cycle;Max_cycle;Signal;HPM_P1;HPM_P2
2021/12/29 00:01:48;;;;;;;1.00;0.90;;;19.10;57.60;;;;;;5056778;28;20296;-22
2021/12/29 00:04:16;;;;;;;1.60;1.10;;;19.00;57.60;;;;;;5057271;28;20219;-23
2021/12/29 00:06:42;;;;;;;1.43;1.00;;;19.00;57.80;;;;;;5058125;28;20168;-24
2021/12/29 00:09:08;;;;;;;1.93;1.00;;;19.00;58.00;;;;;;5057108;28;20207;-22
2021/12/29 00:11:39;;;;;;;1.70;0.90;;;19.00;58.10;;;;;;5057829;28;20530;-21
2021/12/29 00:14:07;;;;;;;1.17;0.87;;;18.90;58.00;;;;;;5055570;28;20245;-21
2021/12/29 00:16:34;;;;;;;1.40;1.10;;;18.90;58.20;;;;;;5055815;28;20179;-24
2021/12/29 00:19:04;;;;;;;2.37;1.07;;;18.90;58.40;;;;;;5055511;28;20172;-22
2021/12/29 00:21:33;;;;;;;1.30;0.90;;;18.90;58.50;;;;;;5054052;28;20278;-22
2021/12/29 00:24:00;;;;;;;1.70;1.10;;;18.80;58.50;;;;;;5054717;28;20621;-21
2021/12/29 00:26:27;;;;;;;1.13;0.90;;;18.80;58.60;;;;;;5054361;28;20171;-21
2021/12/29 00:28:53;;;;;;;1.27;1.10;;;18.80;58.70;;;;;;5053609;28;20208;-22
2021/12/29 00:31:20;;;;;;;1.13;0.90;;;18.70;58.70;;;;;;5053248;28;20175;-23
2021/12/29 00:33:46;;;;;;;0.97;0.90;;;18.70;58.80;;;;;;5053292;28;20178;-24
2021/12/29 00:36:12;;;;;;;1.10;1.00;;;18.70;58.90;;;;;;5053277;28;20210;-22
2021/12/29 00:38:37;;;;;;;1.80;0.80;;;18.70;58.90;;;;;;5055709;28;20163;-22
2021/12/29 00:41:03;;;;;;;1.43;1.07;;;18.70;58.90;;;;;;5054952;28;20238;-23
2021/12/29 00:43:29;;;;;;;1.10;0.90;;;18.70;59.10;;;;;;5055723;28;20175;-23
2021/12/29 00:45:55;;;;;;;1.40;0.83;;;18.60;59.10;;;;;;5054256;28;20195;-23
2021/12/29 00:48:24;;;;;;;0.70;0.70;;;18.60;59.20;;;;;;5054204;28;20175;-23
2021/12/29 00:50:49;;;;;;;1.00;0.90;;;18.60;59.30;;;;;;5054637;28;20172;-22
2021/12/29 00:53:16;;;;;;;0.73;0.73;;;18.50;59.20;;;;;;5052226;28;20201;-23
2021/12/29 00:55:42;;;;;;;1.00;0.80;;;18.50;59.40;;;;;;5053907;28;20316;-23
2021/12/29 00:58:08;;;;;;;1.40;1.00;;;18.50;59.40;;;;;;5053116;28;20209;-19
2021/12/29 01:00:37;;;;;;;0.80;0.63;;;18.50;59.50;;;;;;5055089;28;20200;-22
2021/12/29 01:03:06;;;;;;;1.20;0.90;;;18.50;59.60;;;;;;5054908;28;20230;-23
2021/12/29 01:05:32;;;;;;;1.20;0.97;;;18.50;59.70;;;;;;5054052;28;20494;-24
2021/12/29 01:07:57;;;;;;;1.20;0.90;;;18.50;59.80;;;;;;5054713;28;20571;-23
2021/12/29 01:10:23;;;;;;;2.07;0.80;;;18.40;59.80;;;;;;5053637;28;20176;-21
2021/12/29 01:12:56;;;;;;;1.20;1.00;;;18.40;59.90;;;;;;5054092;28;20636;-22
2021/12/29 01:15:30;;;;;;;1.00;0.90;;;18.40;60.10;;;;;;5051929;28;20213;-23
2021/12/29 01:17:57;;;;;;;0.90;0.80;;;18.40;60.20;;;;;;5053798;28;20188;-21
2021/12/29 01:20:23;;;;;;;0.80;0.80;;;18.40;60.30;;;;;;5052901;28;20171;-20
2021/12/29 01:22:50;;;;;;;1.90;1.03;;;18.30;60.30;;;;;;5054504;28;20220;-21
2021/12/29 01:25:16;;;;;;;1.07;0.90;;;18.30;60.50;;;;;;5054933;28;20168;-22
2021/12/29 01:27:42;;;;;;;0.77;0.73;;;18.30;60.60;;;;;;5054925;28;20234;-24
2021/12/29 01:30:10;;;;;;;0.90;0.80;;;18.30;60.70;;;;;;5055433;28;20182;-21
2021/12/29 01:35:05;;;;;;;2.00;1.00;;;18.30;61.10;;;;;;5095413;28;20227;-73
2021/12/29 01:37:30;;;;;;;1.17;1.00;;;18.30;61.30;;;;;;5079126;28;20432;-74
2021/12/29 01:39:56;;;;;;;0.70;0.70;;;18.20;61.30;;;;;;5096672;28;20157;-74
2021/12/29 01:42:22;;;;;;;1.07;0.90;;;18.20;61.40;;;;;;5096884;28;20181;-74
2021/12/29 01:44:48;;;;;;;0.80;0.80;;;18.20;62.10;;;;;;5097748;28;20189;-74
2021/12/29 01:47:25;;;;;;;1.00;0.80;;;18.20;61.40;;;;;;5060974;28;20507;-74
2021/12/29 01:49:50;;;;;;;1.10;0.70;;;18.20;61.50;;;;;;5060259;28;20173;-74
2021/12/29 01:52:21;;;;;;;1.43;0.80;;;18.20;61.70;;;;;;5097823;28;20166;-74
2021/12/29 01:54:47;;;;;;;1.10;0.87;;;18.10;61.60;;;;;;5077405;28;20195;-74
2021/12/29 01:57:13;;;;;;;1.13;0.77;;;18.10;61.70;;;;;;5060132;28;20189;-74
2021/12/29 01:59:40;;;;;;;1.70;0.87;;;18.10;61.90;;;;;;5059298;28;20684;-74
2021/12/29 02:02:06;;;;;;;1.23;0.90;;;18.10;61.90;;;;;;5077150;28;20638;-74
2021/12/29 02:04:32;;;;;;;0.97;0.70;;;18.10;62.00;;;;;;5075615;28;20281;-73
2021/12/29 02:07:01;;;;;;;0.63;0.63;;;18.10;62.20;;;;;;5059938;28;20189;-75
2021/12/29 02:09:27;;;;;;;1.30;0.80;;;18.10;62.20;;;;;;5059969;28;20190;-75
2021/12/29 02:11:53;;;;;;;1.00;0.90;;;18.10;62.40;;;;;;5059985;28;20182;-75
2021/12/29 02:19:23;;;;;;;0.93;0.70;;;18.00;62.50;;;;;;5073043;28;20518;-13
2021/12/29 02:22:07;;;;;;;0.90;0.70;;;18.00;62.70;;;;;;5060593;28;20206;-15
2021/12/29 02:24:42;;;;;;;0.70;0.70;;;18.00;62.60;;;;;;5061877;28;20179;-16
2021/12/29 02:27:11;;;;;;;0.70;0.70;;;18.00;62.60;;;;;;5078896;28;20177;-16
2021/12/29 02:29:39;;;;;;;0.77;0.60;;;18.00;62.80;;;;;;5079044;28;20184;-17
2021/12/29 02:32:05;;;;;;;0.90;0.80;;;18.00;62.80;;;;;;5067146;28;20178;-16
2021/12/29 02:34:32;;;;;;;0.70;0.70;;;17.90;62.90;;;;;;5059469;28;20244;-16
2021/12/29 02:37:01;;;;;;;0.80;0.80;;;17.90;63.00;;;;;;5058889;28;20590;-16
2021/12/29 02:39:30;;;;;;;0.67;0.67;;;17.90;63.10;;;;;;5059570;28;20262;-15
2021/12/29 02:41:56;;;;;;;0.80;0.70;;;17.90;63.10;;;;;;5042642;28;20575;-15
2021/12/29 02:44:29;;;;;;;1.43;0.73;;;17.90;63.20;;;;;;5042581;28;20183;-18
2021/12/29 02:46:57;;;;;;;0.93;0.70;;;17.90;63.30;;;;;;5042602;28;20193;-16
2021/12/29 02:49:25;;;;;;;1.20;0.80;;;17.90;63.40;;;;;;5059562;28;20272;-16
2021/12/29 02:51:51;;;;;;;0.80;0.80;;;17.90;63.60;;;;;;5059597;28;20199;-17
2021/12/29 02:54:18;;;;;;;0.67;0.67;;;17.90;63.80;;;;;;5059391;28;20238;-15
2021/12/29 02:56:48;;;;;;;1.13;0.80;;;17.80;63.60;;;;;;5063203;28;20174;-16
2021/12/29 02:59:14;;;;;;;0.80;0.70;;;17.80;63.50;;;;;;5050297;28;20177;-15
2021/12/29 03:01:40;;;;;;;1.03;0.80;;;17.80;63.70;;;;;;5049170;28;20595;-16
2021/12/29 03:04:06;;;;;;;1.07;0.90;;;17.80;64.00;;;;;;5066136;28;20183;-15
2021/12/29 03:06:34;;;;;;;0.83;0.80;;;17.80;64.00;;;;;;5050120;28;20178;-15
2021/12/29 03:09:02;;;;;;;1.87;0.80;;;17.80;64.10;;;;;;5063033;28;20465;-16
2021/12/29 03:11:28;;;;;;;1.07;0.70;;;17.80;64.20;;;;;;5066910;28;20194;-15
2021/12/29 03:13:53;;;;;;;0.70;0.70;;;17.80;64.30;;;;;;5048009;28;20201;-16
2021/12/29 03:16:19;;;;;;;1.80;0.90;;;17.80;64.20;;;;;;5066680;28;20592;-15
2021/12/29 03:18:45;;;;;;;0.70;0.70;;;17.80;64.20;;;;;;5050816;28;20197;-17
2021/12/29 03:21:11;;;;;;;0.67;0.67;;;17.70;64.40;;;;;;5059580;28;20476;-15
2021/12/29 03:23:39;;;;;;;1.00;0.90;;;17.70;64.40;;;;;;5042011;28;20198;-16
2021/12/29 03:26:08;;;;;;;0.77;0.70;;;17.70;64.60;;;;;;5054773;28;20181;-15
2021/12/29 03:28:35;;;;;;;0.50;0.50;;;17.70;64.60;;;;;;5055325;28;20182;-15
2021/12/29 03:31:01;;;;;;;0.80;0.80;;;17.70;64.70;;;;;;5059496;28;20449;-15
2021/12/29 03:33:30;;;;;;;0.70;0.70;;;17.70;64.80;;;;;;5058715;28;20198;-16
2021/12/29 03:36:02;;;;;;;1.47;0.70;;;17.70;64.80;;;;;;5043257;28;20214;-16
2021/12/29 03:38:32;;;;;;;0.90;0.90;;;17.70;64.70;;;;;;5062194;28;20260;-17
2021/12/29 03:40:58;;;;;;;0.70;0.70;;;17.70;65.00;;;;;;5050939;28;20231;-16
2021/12/29 03:43:27;;;;;;;1.07;0.97;;;17.70;65.10;;;;;;5053996;28;20226;-15
2021/12/29 03:45:54;;;;;;;0.80;0.80;;;17.60;65.10;;;;;;5050680;28;20195;-15
2021/12/29 03:48:23;;;;;;;0.80;0.70;;;17.60;65.30;;;;;;5058938;28;20462;-16
2021/12/29 03:50:49;;;;;;;0.60;0.60;;;17.60;65.40;;;;;;5058340;28;20172;-15
2021/12/29 03:53:16;;;;;;;0.70;0.70;;;17.60;65.40;;;;;;5059875;28;20185;-15
2021/12/29 03:55:45;;;;;;;0.67;0.67;;;17.60;65.60;;;;;;5061780;28;20487;-16
2021/12/29 03:58:11;;;;;;;0.70;0.70;;;17.60;65.80;;;;;;5071247;28;20730;-15
2021/12/29 04:00:37;;;;;;;0.80;0.77;;;17.60;65.80;;;;;;5064444;28;20211;-15
2021/12/29 04:03:05;;;;;;;1.93;0.80;;;17.50;65.80;;;;;;5059309;28;20239;-17
2021/12/29 04:05:30;;;;;;;0.77;0.60;;;18.90;60.80;;;;;;5060913;28;20212;-15
2021/12/29 04:07:56;;;;;;;0.60;0.53;;;20.80;53.60;;;;;;5041567;28;20187;-15
2021/12/29 04:10:23;;;;;;;0.80;0.80;;;21.30;51.50;;;;;;5041545;28;20209;-15
2021/12/29 04:12:50;;;;;;;0.53;0.53;;;21.50;50.70;;;;;;5059056;28;20206;-15
2021/12/29 04:15:17;;;;;;;0.50;0.50;;;21.80;50.20;;;;;;5041355;28;20204;-16
2021/12/29 04:17:44;;;;;;;0.77;0.60;;;22.00;49.60;;;;;;5041438;28;20190;-16
2021/12/29 04:22:59;;;;;;;0.60;0.60;;;22.50;48.50;;;;;;5072295;28;20581;-17
2021/12/29 04:25:25;;;;;;;1.03;0.70;;;22.70;48.20;;;;;;5078563;28;20582;-16
2021/12/29 04:27:53;;;;;;;1.17;0.77;;;22.70;48.00;;;;;;5057732;28;20182;-15
2021/12/29 04:30:19;;;;;;;0.70;0.60;;;22.70;48.00;;;;;;5041078;28;20240;-15
2021/12/29 04:32:46;;;;;;;0.67;0.63;;;22.90;47.90;;;;;;5041255;28;20208;-15
2021/12/29 04:35:13;;;;;;;0.80;0.73;;;23.10;47.50;;;;;;5040688;28;20638;-17
2021/12/29 04:37:39;;;;;;;0.60;0.60;;;23.40;47.10;;;;;;5058680;28;20359;-16
2021/12/29 04:40:06;;;;;;;0.50;0.50;;;23.40;47.00;;;;;;5063382;28;20556;-15
2021/12/29 04:42:33;;;;;;;0.83;0.70;;;23.40;47.00;;;;;;5060951;28;20167;-15
2021/12/29 04:44:59;;;;;;;0.90;0.70;;;23.40;46.90;;;;;;5059583;28;20280;-14
2021/12/29 04:47:29;;;;;;;0.50;0.50;;;23.40;47.30;;;;;;5078084;28;20576;-14
2021/12/29 04:49:57;;;;;;;0.70;0.70;;;23.60;46.80;;;;;;5077858;28;20168;-15
2021/12/29 04:52:23;;;;;;;0.60;0.60;;;24.00;46.30;;;;;;5060649;28;20189;-14
2021/12/29 04:54:48;;;;;;;1.30;0.60;;;24.10;46.00;;;;;;5060437;28;20203;-16
2021/12/29 04:57:15;;;;;;;0.70;0.70;;;24.00;45.90;;;;;;5060436;28;20568;-17
2021/12/29 04:59:41;;;;;;;1.07;0.60;;;23.90;46.10;;;;;;5064360;28;20173;-16
2021/12/29 05:02:09;;;;;;;0.83;0.70;;;23.80;46.20;;;;;;5054778;28;20178;-16
2021/12/29 05:04:44;;;;;;;0.70;0.70;;;23.50;46.40;;;;;;5061832;28;20231;-19
2021/12/29 05:09:54;;;;;;;0.60;0.60;;;23.00;47.20;;;;;;5068972;28;20182;-16
2021/12/29 05:12:20;;;;;;;0.70;0.70;;;22.60;47.70;;;;;;5057140;28;20176;-16
2021/12/29 05:14:46;;;;;;;0.70;0.70;;;22.50;48.10;;;;;;5053848;28;20199;-17
2021/12/29 05:17:12;;;;;;;0.70;0.60;;;22.30;48.50;;;;;;5057281;28;20425;-16
2021/12/29 05:19:37;;;;;;;0.80;0.60;;;22.00;48.90;;;;;;5057819;28;20188;-16
2021/12/29 05:22:06;;;;;;;0.70;0.70;;;21.90;49.40;;;;;;5039671;28;20172;-16
2021/12/29 05:24:31;;;;;;;0.70;0.70;;;21.70;49.70;;;;;;5040532;28;20340;-16
2021/12/29 05:26:58;;;;;;;0.50;0.50;;;21.70;50.00;;;;;;5057677;28;20265;-16
2021/12/29 05:29:24;;;;;;;0.70;0.70;;;21.60;50.20;;;;;;5040322;28;20553;-16
2021/12/29 05:31:51;;;;;;;0.77;0.67;;;21.40;50.50;;;;;;5061659;28;20174;-16
2021/12/29 05:34:17;;;;;;;0.70;0.70;;;21.30;50.80;;;;;;5054240;28;20192;-15
2021/12/29 05:36:43;;;;;;;0.50;0.50;;;21.20;51.20;;;;;;5057322;28;20171;-16
2021/12/29 05:39:08;;;;;;;0.60;0.53;;;21.00;51.70;;;;;;5066834;28;20251;-17
2021/12/29 05:41:34;;;;;;;1.07;0.60;;;20.80;52.10;;;;;;5057585;28;20694;-15
2021/12/29 05:44:00;;;;;;;1.00;0.87;;;20.70;52.60;;;;;;5057145;28;20174;-15
2021/12/29 05:46:25;;;;;;;0.70;0.70;;;20.40;53.10;;;;;;5047650;28;20190;-15
2021/12/29 05:48:51;;;;;;;0.77;0.73;;;20.20;53.90;;;;;;5056918;28;20193;-15
2021/12/29 05:51:17;;;;;;;1.10;0.80;;;20.10;54.30;;;;;;5062273;28;20193;-16
2021/12/29 05:53:43;;;;;;;0.50;0.50;;;20.00;54.80;;;;;;5056850;28;20179;-16
2021/12/29 05:56:09;;;;;;;1.47;0.67;;;20.00;55.10;;;;;;5072031;28;20227;-16
2021/12/29 05:58:36;;;;;;;0.60;0.60;;;20.10;55.00;;;;;;5048624;28;20540;-16
2021/12/29 06:01:03;;;;;;;0.70;0.70;;;20.50;54.00;;;;;;5067397;28;20228;-16
2021/12/29 06:03:28;;;;;;;0.87;0.70;;;21.20;52.50;;;;;;5067356;28;20651;-19
2021/12/29 06:05:54;;;;;;;0.90;0.77;;;22.00;50.70;;;;;;5060742;28;20242;-15
2021/12/29 06:08:21;;;;;;;0.70;0.70;;;22.70;49.20;;;;;;5043109;28;20183;-16
2021/12/29 06:10:47;;;;;;;0.87;0.80;;;23.20;48.00;;;;;;5047796;28;20431;-15
2021/12/29 06:13:13;;;;;;;0.63;0.60;;;23.50;47.20;;;;;;5042098;28;20187;-16
2021/12/29 06:15:38;;;;;;;0.90;0.60;;;23.60;46.90;;;;;;5043310;28;20592;-15
2021/12/29 06:18:04;;;;;;;0.80;0.80;;;23.30;46.90;;;;;;5044539;28;20184;-16
2021/12/29 06:20:30;;;;;;;0.70;0.70;;;23.20;47.10;;;;;;5069919;28;20700;-16
2021/12/29 06:22:56;;;;;;;0.60;0.60;;;23.00;47.30;;;;;;5049357;28;20256;-19
2021/12/29 06:25:23;;;;;;;0.70;0.60;;;23.00;47.50;;;;;;5066828;28;20209;-16
2021/12/29 06:27:51;;;;;;;0.63;0.63;;;23.00;47.60;;;;;;5066961;28;20184;-16
2021/12/29 06:30:17;;;;;;;0.70;0.70;;;23.10;47.40;;;;;;5066922;28;20234;-17
2021/12/29 06:32:44;;;;;;;0.53;0.53;;;23.10;47.30;;;;;;5053551;28;20172;-16
2021/12/29 06:35:11;;;;;;;0.60;0.60;;;23.20;47.30;;;;;;5065598;28;20239;-17
2021/12/29 06:37:37;;;;;;;0.77;0.70;;;23.20;47.30;;;;;;5050864;28;20165;-17
2021/12/29 06:40:04;;;;;;;1.17;0.67;;;22.90;47.40;;;;;;5072667;28;20186;-13
2021/12/29 06:42:29;;;;;;;0.70;0.70;;;22.90;47.60;;;;;;5072134;28;20199;-16
2021/12/29 06:45:00;;;;;;;0.73;0.63;;;22.70;47.80;;;;;;5049267;28;21251;-15
2021/12/29 06:47:27;;;;;;;0.43;0.40;;;22.50;48.10;;;;;;5072934;28;20514;-14
2021/12/29 06:49:53;;;;;;;1.77;0.60;;;22.40;48.40;;;;;;5046666;28;20341;-14
2021/12/29 06:52:19;;;;;;;0.60;0.60;;;22.10;48.70;;;;;;5050442;28;20266;-14
2021/12/29 06:54:46;;;;;;;0.70;0.60;;;21.90;49.10;;;;;;5052424;28;20203;-14
2021/12/29 06:57:12;;;;;;;1.83;0.70;;;21.80;49.40;;;;;;5048679;28;20483;-16
2021/12/29 06:59:38;;;;;;;0.50;0.50;;;21.60;49.80;;;;;;5064584;28;20205;-14
2021/12/29 07:02:03;;;;;;;0.60;0.60;;;21.50;50.00;;;;;;5065820;28;20550;-14
2021/12/29 07:04:30;;;;;;;2.00;0.60;;;21.30;50.40;;;;;;5059364;28;20178;-14
2021/12/29 07:06:55;;;;;;;0.50;0.50;;;21.10;50.90;;;;;;5044263;28;20187;-14
2021/12/29 07:09:22;;;;;;;0.73;0.60;;;21.00;51.40;;;;;;5057606;28;20172;-15
2021/12/29 07:11:48;;;;;;;0.50;0.50;;;20.70;51.90;;;;;;5065068;28;20178;-16
2021/12/29 07:14:14;;;;;;;1.33;0.60;;;20.60;52.50;;;;;;5070793;28;20188;-17
2021/12/29 07:16:43;;;;;;;0.50;0.50;;;20.40;53.00;;;;;;5065736;28;20176;-17
2021/12/29 07:19:09;;;;;;;0.70;0.70;;;20.30;53.40;;;;;;5069785;28;20279;-15
2021/12/29 07:21:35;;;;;;;1.17;0.90;;;20.20;53.90;;;;;;5051858;28;20267;-16
2021/12/29 07:24:00;;;;;;;0.70;0.70;;;20.10;54.30;;;;;;5067787;28;20191;-16
2021/12/29 07:26:26;;;;;;;0.57;0.57;;;20.10;54.40;;;;;;5041699;28;20174;-16
2021/12/29 07:28:53;;;;;;;1.50;0.50;;;20.30;53.80;;;;;;5058085;28;20174;-17
2021/12/29 07:31:19;;;;;;;0.63;0.60;;;20.80;52.90;;;;;;5057708;28;20198;-16
2021/12/29 07:33:46;;;;;;;0.60;0.60;;;21.40;51.50;;;;;;5046847;28;20173;-17
2021/12/29 07:36:12;;;;;;;0.77;0.67;;;22.20;49.90;;;;;;5066979;28;20592;-15
2021/12/29 07:38:41;;;;;;;0.67;0.67;;;23.00;48.40;;;;;;5071351;28;20178;-16
2021/12/29 07:41:08;;;;;;;0.60;0.60;;;23.50;47.40;;;;;;5040824;28;20175;-15
2021/12/29 07:43:35;;;;;;;0.70;0.67;;;23.80;46.60;;;;;;5038371;28;20553;-17
2021/12/29 07:46:02;;;;;;;0.60;0.60;;;24.10;46.10;;;;;;5036420;28;20244;-16
2021/12/29 07:48:30;;;;;;;0.60;0.60;;;24.30;45.80;;;;;;5055423;28;20529;-17
2021/12/29 07:50:56;;;;;;;0.70;0.70;;;24.20;45.60;;;;;;5055213;28;20610;-16
2021/12/29 07:53:22;;;;;;;0.50;0.50;;;24.10;45.60;;;;;;5054658;28;20175;-15
2021/12/29 07:55:48;;;;;;;1.53;0.60;;;23.90;45.90;;;;;;5036922;28;20455;-17
2021/12/29 07:58:14;;;;;;;1.27;0.80;;;23.80;46.00;;;;;;5054594;28;20169;-17
2021/12/29 08:00:40;;;;;;;0.63;0.63;;;23.60;46.10;;;;;;5037076;28;20173;-17
2021/12/29 08:03:06;;;;;;;0.70;0.70;;;23.70;46.20;;;;;;5037253;28;20466;-17
2021/12/29 08:05:32;;;;;;;0.60;0.60;;;23.70;46.10;;;;;;5037953;28;20274;-16
2021/12/29 08:07:57;;;;;;;0.60;0.60;;;23.60;46.20;;;;;;5037981;28;20364;-16
2021/12/29 08:10:23;;;;;;;0.60;0.60;;;23.50;46.30;;;;;;5054668;28;20171;-16
2021/12/29 08:12:49;;;;;;;1.17;0.83;;;23.20;46.60;;;;;;5054710;28;20172;-16
2021/12/29 08:15:15;;;;;;;1.10;0.83;;;23.10;46.80;;;;;;5054918;28;20215;-16
2021/12/29 08:17:43;;;;;;;0.73;0.73;;;22.90;47.10;;;;;;5036682;28;20588;-18
2021/12/29 08:23:32;;;;;;;1.07;0.80;;;22.40;47.90;;;;;;5053287;28;20317;-17
2021/12/29 08:25:59;;;;;;;0.60;0.60;;;22.10;48.40;;;;;;5037353;28;20206;-15
2021/12/29 08:28:25;;;;;;;0.70;0.70;;;21.90;48.70;;;;;;5053943;28;20305;-17
2021/12/29 08:30:52;;;;;;;0.90;0.77;;;21.80;49.00;;;;;;5036568;28;20508;-16
2021/12/29 08:33:18;;;;;;;1.47;0.90;;;21.60;49.50;;;;;;5053616;28;20184;-16
2021/12/29 08:35:44;;;;;;;0.70;0.70;;;21.50;49.70;;;;;;5036461;28;20642;-15
2021/12/29 08:38:10;;;;;;;1.70;0.83;;;21.40;50.10;;;;;;5052210;28;20706;-17
2021/12/29 08:40:36;;;;;;;1.00;0.80;;;21.20;50.50;;;;;;5051442;28;20178;-15
2021/12/29 08:43:03;;;;;;;2.60;0.80;;;21.00;50.90;;;;;;5035714;28;20193;-15
2021/12/29 08:45:31;;;;;;;0.83;0.83;;;20.80;51.50;;;;;;5035551;28;20168;-17
2021/12/29 08:47:58;;;;;;;0.93;0.90;;;20.50;52.20;;;;;;5033021;28;20183;-16
2021/12/29 08:50:26;;;;;;;1.00;0.80;;;20.30;52.90;;;;;;5032990;28;20172;-17
2021/12/29 08:52:53;;;;;;;1.20;1.00;;;20.20;53.40;;;;;;5033765;28;20280;-17
2021/12/29 08:55:18;;;;;;;3.47;1.00;;;20.10;53.90;;;;;;5053374;28;20207;-15
2021/12/29 08:57:44;;;;;;;1.67;1.07;;;20.30;53.70;;;;;;5036036;28;20173;-15
2021/12/29 09:00:16;;;;;;;1.20;1.10;;;21.10;52.00;;;;;;5052281;28;20172;-16
2021/12/29 09:02:43;;;;;;;3.57;1.20;;;21.90;50.50;;;;;;5051813;28;20175;-19
2021/12/29 09:05:10;;;;;;;5.50;1.57;;;22.70;49.10;;;;;;5052524;28;20183;-17
2021/12/29 09:07:36;;;;;;;4.97;1.80;;;23.30;47.90;;;;;;5052594;28;20202;-17
2021/12/29 09:10:04;;;;;;;7.30;2.17;;;23.90;47.10;;;;;;5034693;28;20172;-17
2021/12/29 09:12:30;;;;;;;7.30;2.40;;;24.30;46.40;;;;;;5051297;28;20176;-15
2021/12/29 09:14:56;;;;;;;5.37;1.90;;;24.20;46.20;;;;;;5053478;28;20204;-18
2021/12/29 09:17:22;;;;;;;8.67;2.50;;;24.10;46.20;;;;;;5035815;28;20464;-17
2021/12/29 09:19:48;;;;;;;6.73;2.30;;;23.90;46.80;;;;;;5035531;28;20553;-15
2021/12/29 09:22:14;;;;;;;6.77;2.37;;;23.70;46.70;;;;;;5035573;28;20171;-15
2021/12/29 09:24:42;;;;;;;8.10;2.37;;;23.70;46.80;;;;;;5052920;28;20207;-15
2021/12/29 09:27:08;;;;;;;5.57;2.57;;;23.70;46.80;;;;;;5052054;28;20176;-17
2021/12/29 09:29:34;;;;;;;5.40;2.27;;;23.70;46.90;;;;;;5034558;28;20596;-16
2021/12/29 09:32:02;;;;;;;6.53;2.10;;;23.70;47.00;;;;;;5033628;28;20267;-18
2021/12/29 09:34:28;;;;;;;8.80;2.47;;;23.50;47.20;;;;;;5053149;28;20275;-17
2021/12/29 09:36:54;;;;;;;8.27;2.40;;;23.50;48.20;;;;;;5051247;28;20176;-18
2021/12/29 09:39:20;;;;;;;13.17;2.90;;;23.60;49.00;;;;;;5051677;28;20175;-16
2021/12/29 09:41:46;;;;;;;8.87;2.57;;;23.30;49.60;;;;;;5052583;28;20621;-16
2021/12/29 09:44:12;;;;;;;10.00;2.97;;;23.10;50.00;;;;;;5051391;28;20172;-17
2021/12/29 09:46:38;;;;;;;8.67;2.63;;;22.90;50.70;;;;;;5034655;28;20180;-17
2021/12/29 09:49:05;;;;;;;10.13;2.70;;;22.60;51.20;;;;;;5050310;28;20564;-17
2021/12/29 09:51:31;;;;;;;8.20;2.63;;;22.50;51.80;;;;;;5051385;28;20265;-19
2021/12/29 09:53:57;;;;;;;12.83;2.90;;;22.10;53.10;;;;;;5051433;28;20275;-17
2021/12/29 09:56:26;;;;;;;8.70;2.43;;;22.00;53.50;;;;;;5051292;28;20209;-17
2021/12/29 09:58:53;;;;;;;13.60;2.83;;;21.60;55.10;;;;;;5034351;28;20182;-16
2021/12/29 10:01:19;;;;;;;10.43;2.53;;;21.40;56.10;;;;;;5050564;28;20278;-16
2021/12/29 10:03:45;;;;;;;6.10;2.60;;;21.30;56.60;;;;;;5033416;28;20171;-17
2021/12/29 10:06:12;;;;;;;9.50;2.97;;;21.10;57.40;;;;;;5051585;28;20178;-17
2021/12/29 10:08:41;;;;;;;6.07;2.37;;;21.00;57.90;;;;;;5050557;28;20214;-17
2021/12/29 10:11:36;;;;;;;7.07;2.40;;;20.80;58.50;;;;;;5052657;28;20254;-16
2021/12/29 10:14:07;;;;;;;10.00;2.83;;;20.60;59.20;;;;;;5029983;28;20186;-18
2021/12/29 10:16:33;;;;;;;8.53;2.50;;;20.30;61.50;;;;;;5049917;28;20213;-16
2021/12/29 10:19:08;;;;;;;9.30;2.53;;;20.30;63.70;;;;;;5050641;28;20272;-15
2021/12/29 10:21:40;;;;;;;8.27;2.43;;;20.40;63.10;;;;;;5031574;28;20273;-18
2021/12/29 10:24:06;;;;;;;5.17;2.33;;;20.60;61.50;;;;;;5052824;28;20173;-16
2021/12/29 10:26:35;;;;;;;7.37;2.40;;;20.80;59.50;;;;;;5056472;28;20173;-18
2021/12/29 10:29:06;;;;;;;5.87;2.37;;;21.30;57.50;;;;;;5037986;28;20183;-16
2021/12/29 10:31:38;;;;;;;3.40;2.07;;;21.80;55.70;;;;;;5055111;28;20182;-17
2021/12/29 10:34:19;;;;;;;5.53;2.10;;;22.20;54.40;;;;;;5055673;28;20191;-17
2021/12/29 10:36:48;;;;;;;5.20;1.93;;;22.50;53.00;;;;;;5052054;28;20336;-17
2021/12/29 10:39:20;;;;;;;5.13;2.10;;;22.90;51.80;;;;;;5031966;28;20173;-16
2021/12/29 10:42:06;;;;;;;4.40;2.20;;;23.30;50.80;;;;;;5050090;28;20171;-16
2021/12/29 10:44:41;;;;;;;4.37;2.10;;;23.70;50.30;;;;;;5052901;28;20231;-17
2021/12/29 10:47:20;;;;;;;3.40;2.07;;;23.90;49.20;;;;;;5034324;28;20531;-16
2021/12/29 10:50:14;;;;;;;4.73;1.80;;;24.00;48.70;;;;;;5035396;28;20193;-18
2021/12/29 10:52:43;;;;;;;3.57;2.03;;;24.00;48.60;;;;;;5050220;28;20510;-19
2021/12/29 10:55:31;;;;;;;4.37;2.00;;;23.80;48.60;;;;;;5052795;28;20592;-19
2021/12/29 10:58:16;;;;;;;4.27;2.00;;;23.70;48.80;;;;;;5052863;28;20624;-17
2021/12/29 11:00:46;;;;;;;4.30;2.13;;;23.40;49.00;;;;;;5035646;28;20168;-19
2021/12/29 11:03:16;;;;;;;6.63;2.10;;;23.20;49.30;;;;;;5052566;28;20171;-19
2021/12/29 11:05:50;;;;;;;4.43;2.00;;;23.10;49.60;;;;;;5035580;28;20180;-16
2021/12/29 11:08:17;;;;;;;4.63;1.80;;;22.80;50.00;;;;;;5052070;28;20241;-17
2021/12/29 11:10:45;;;;;;;3.47;2.00;;;22.50;50.50;;;;;;5052126;28;20180;-16
2021/12/29 11:13:12;;;;;;;5.03;2.03;;;22.30;51.00;;;;;;5052818;28;20180;-16
2021/12/29 11:15:42;;;;;;;4.30;1.90;;;22.00;51.60;;;;;;5051743;28;20308;-16
2021/12/29 11:18:12;;;;;;;4.83;1.93;;;21.80;52.10;;;;;;5051877;28;20195;-16
2021/12/29 11:20:39;;;;;;;3.50;1.70;;;21.70;52.60;;;;;;5033600;28;20269;-17
2021/12/29 11:23:25;;;;;;;4.73;1.53;;;21.50;53.30;;;;;;5034726;28;20170;-16
2021/12/29 11:25:52;;;;;;;3.70;1.77;;;21.20;54.00;;;;;;5051329;28;20202;-17
2021/12/29 11:28:25;;;;;;;3.77;1.90;;;21.00;55.00;;;;;;5052578;28;20195;-16
2021/12/29 11:30:52;;;;;;;3.43;2.00;;;20.90;55.20;;;;;;5034140;28;20173;-17
2021/12/29 11:33:19;;;;;;;3.43;1.73;;;20.80;55.70;;;;;;5051578;28;20173;-16
2021/12/29 11:35:48;;;;;;;3.67;1.67;;;20.70;56.10;;;;;;5052219;28;20674;-16
2021/12/29 11:38:15;;;;;;;2.13;1.40;;;20.60;56.70;;;;;;5052064;28;20164;-18
2021/12/29 11:40:45;;;;;;;3.87;1.67;;;20.70;56.30;;;;;;5052515;28;20167;-16
2021/12/29 11:43:13;;;;;;;2.80;1.60;;;20.80;55.90;;;;;;5036331;28;20450;-21
2021/12/29 11:45:41;;;;;;;5.10;1.60;;;21.10;54.90;;;;;;5052718;28;20629;-18
2021/12/29 11:48:09;;;;;;;3.33;1.77;;;21.40;54.10;;;;;;5051009;28;20182;-17
2021/12/29 11:50:37;;;;;;;2.77;1.70;;;21.70;53.20;;;;;;5049514;28;20168;-19
2021/12/29 11:53:19;;;;;;;2.87;1.70;;;22.00;52.30;;;;;;5050349;28;20172;-16
2021/12/29 11:55:48;;;;;;;3.27;1.73;;;22.30;51.70;;;;;;5050839;28;20203;-16
2021/12/29 11:58:24;;;;;;;3.70;1.57;;;22.50;51.10;;;;;;5050305;28;20489;-16
2021/12/29 12:01:07;;;;;;;2.63;1.50;;;22.70;50.40;;;;;;5051150;28;20199;-16
2021/12/29 12:03:44;;;;;;;1.80;1.13;;;23.00;49.90;;;;;;5051550;28;20401;-17
2021/12/29 12:06:31;;;;;;;2.57;1.50;;;23.20;49.40;;;;;;5033494;28;20187;-19
2021/12/29 12:09:25;;;;;;;2.53;1.47;;;23.00;49.20;;;;;;5050534;28;20203;-17
2021/12/29 12:11:59;;;;;;;2.67;1.27;;;22.90;49.60;;;;;;5051902;28;20561;-17
2021/12/29 12:14:36;;;;;;;3.33;1.67;;;22.60;49.90;;;;;;5051949;28;20531;-16
2021/12/29 12:17:13;;;;;;;1.53;1.37;;;22.50;50.20;;;;;;5051231;28;20168;-19
2021/12/29 12:19:40;;;;;;;4.27;1.40;;;22.20;50.60;;;;;;5051349;28;20181;-18
2021/12/29 12:22:15;;;;;;;2.10;1.30;;;22.00;51.00;;;;;;5051351;28;20451;-19
2021/12/29 12:24:51;;;;;;;2.00;1.47;;;21.80;51.60;;;;;;5032906;28;20173;-17
2021/12/29 12:27:29;;;;;;;2.73;1.37;;;21.60;52.10;;;;;;5033907;28;20182;-16
2021/12/29 12:30:17;;;;;;;2.73;1.23;;;21.30;52.70;;;;;;5051625;28;20247;-17
2021/12/29 12:32:49;;;;;;;1.87;1.20;;;21.10;53.30;;;;;;5050958;28;20192;-17
2021/12/29 12:35:35;;;;;;;2.33;1.20;;;21.00;53.90;;;;;;5060965;28;20468;-15
2021/12/29 12:38:22;;;;;;;1.30;1.20;;;20.80;54.50;;;;;;5069613;28;20424;-15
2021/12/29 12:41:10;;;;;;;1.40;1.20;;;20.80;54.70;;;;;;5071415;28;20188;-17
2021/12/29 12:43:57;;;;;;;1.83;1.30;;;20.90;54.40;;;;;;5054322;28;20173;-16
2021/12/29 12:46:34;;;;;;;1.97;1.30;;;21.10;54.10;;;;;;5069675;28;20169;-17
2021/12/29 12:49:20;;;;;;;2.07;1.23;;;21.40;53.40;;;;;;5052909;28;20176;-19
2021/12/29 12:52:05;;;;;;;2.80;1.10;;;21.70;52.60;;;;;;5051948;28;20574;-18
2021/12/29 12:54:36;;;;;;;1.30;1.10;;;22.20;51.60;;;;;;5070298;28;20457;-16
2021/12/29 12:57:03;;;;;;;1.40;1.10;;;22.60;50.60;;;;;;5052938;28;20167;-16
2021/12/29 12:59:45;;;;;;;2.10;1.23;;;22.90;49.80;;;;;;5051391;28;20173;-17
2021/12/29 13:02:15;;;;;;;1.50;1.10;;;23.30;48.90;;;;;;5069286;28;20213;-16
2021/12/29 13:05:11;;;;;;;1.67;1.17;;;23.40;48.50;;;;;;5068900;28;20176;-17
2021/12/29 13:07:39;;;;;;;1.87;1.10;;;23.60;48.10;;;;;;5065382;28;20571;-16
2021/12/29 13:10:08;;;;;;;1.73;1.20;;;23.60;48.00;;;;;;5051950;28;20196;-17